Time;durP1;ratioP1;P1;durP2;ratioP2;P2;SDS_P1;SDS_P2;PMS_P1;PMS_P2;Temp;Humidity;BMP_temperature;BMP_pressure;BME280_temperature;BME280_humidity;BME280_pressure;Samples;Min_cycle;Max_cycle;Signal;HPM_P1;HPM_P2
2023/10/19 00:00:25;;;;;;;2.67;1.63;;;;;;;;;;5128740;28;20197;-82
2023/10/19 00:02:54;;;;;;;3.53;2.63;;;;;;;;;;5095185;28;20228;-82
2023/10/19 00:05:26;;;;;;;8.00;2.33;;;;;;;;;;5092907;28;20202;-82
2023/10/19 00:07:58;;;;;;;1.47;1.37;;;;;;;;;;5087637;28;20182;-82
2023/10/19 00:10:30;;;;;;;2.50;2.07;;;;;;;;;;5087398;28;20224;-84
2023/10/19 00:13:00;;;;;;;3.83;2.07;;;;;;;;;;5086840;28;20679;-82
2023/10/19 00:15:32;;;;;;;5.00;2.63;;;;;;;;;;5088044;28;20304;-83
2023/10/19 00:18:13;;;;;;;3.87;3.43;;;;;;;;;;5087284;28;20214;-83
2023/10/19 00:20:51;;;;;;;2.07;1.97;;;;;;;;;;5092303;28;20257;-83
2023/10/19 00:23:31;;;;;;;2.07;1.97;;;;;;;;;;5098291;28;20201;-84
2023/10/19 00:25:59;;;;;;;4.67;1.63;;;;;;;;;;5090624;28;20194;-81
2023/10/19 00:28:27;;;;;;;1.50;1.40;;;;;;;;;;5086482;28;20206;-82
2023/10/19 00:31:03;;;;;;;4.93;2.03;;;;;;;;;;5086839;28;20205;-83
2023/10/19 00:33:32;;;;;;;2.47;1.60;;;;;;;;;;5086519;28;20198;-83
2023/10/19 00:36:07;;;;;;;1.47;1.40;;;;;;;;;;5086135;28;20709;-82
2023/10/19 00:38:52;;;;;;;4.67;3.13;;;;;;;;;;5086812;28;20204;-85
2023/10/19 00:41:24;;;;;;;5.80;2.70;;;;;;;;;;5086591;28;20281;-83
2023/10/19 00:43:58;;;;;;;5.33;2.57;;;;;;;;;;5085788;28;20701;-83
2023/10/19 00:46:31;;;;;;;3.30;2.10;;;;;;;;;;5082393;28;20710;-84
2023/10/19 00:49:00;;;;;;;3.23;2.90;;;;;;;;;;5072451;28;20183;-82
2023/10/19 00:51:37;;;;;;;1.70;1.60;;;;;;;;;;5073131;28;20191;-84
2023/10/19 00:54:10;;;;;;;1.80;1.63;;;;;;;;;;5073529;28;20550;-83
2023/10/19 00:56:41;;;;;;;1.90;1.80;;;;;;;;;;5073194;28;20219;-83
2023/10/19 00:59:14;;;;;;;1.37;1.23;;;;;;;;;;5072925;28;20202;-83
2023/10/19 01:01:45;;;;;;;1.97;1.53;;;;;;;;;;5071942;28;20222;-84
2023/10/19 01:04:20;;;;;;;2.90;2.43;;;;;;;;;;5072983;28;20289;-83
2023/10/19 01:07:00;;;;;;;1.57;1.47;;;;;;;;;;5072514;28;20267;-82
2023/10/19 01:09:34;;;;;;;2.10;2.00;;;;;;;;;;5071755;28;20217;-83
2023/10/19 01:12:18;;;;;;;6.47;2.60;;;;;;;;;;5071559;28;20191;-81
2023/10/19 01:14:46;;;;;;;1.83;1.73;;;;;;;;;;5071890;28;20203;-83
2023/10/19 01:17:14;;;;;;;2.60;1.93;;;;;;;;;;5071436;28;20230;-83
2023/10/19 01:19:46;;;;;;;1.60;1.50;;;;;;;;;;5071927;28;20186;-82
2023/10/19 01:22:16;;;;;;;3.30;2.17;;;;;;;;;;5072190;28;20566;-84
2023/10/19 01:24:46;;;;;;;2.33;2.07;;;;;;;;;;5071740;28;20222;-83
2023/10/19 01:27:13;;;;;;;2.53;2.23;;;;;;;;;;5071397;28;20206;-83
2023/10/19 01:29:41;;;;;;;2.23;2.13;;;;;;;;;;5071472;28;20282;-84
2023/10/19 01:32:09;;;;;;;4.20;2.10;;;;;;;;;;5071252;28;20199;-83
2023/10/19 01:34:37;;;;;;;2.20;1.80;;;;;;;;;;5071938;28;20195;-84
2023/10/19 01:37:12;;;;;;;4.40;2.57;;;;;;;;;;5071854;28;20270;-84
2023/10/19 01:39:45;;;;;;;2.27;2.17;;;;;;;;;;5071572;28;20198;-82
2023/10/19 01:42:17;;;;;;;6.97;2.10;;;;;;;;;;5071450;28;20274;-84
2023/10/19 01:44:43;;;;;;;2.00;1.73;;;;;;;;;;5071952;28;20261;-82
2023/10/19 01:47:13;;;;;;;2.93;2.30;;;;;;;;;;5072003;28;20198;-83
2023/10/19 01:49:45;;;;;;;1.60;1.27;;;;;;;;;;5072357;28;20191;-83
2023/10/19 01:52:15;;;;;;;1.37;1.27;;;;;;;;;;5071647;28;20229;-83
2023/10/19 01:54:42;;;;;;;5.13;1.87;;;;;;;;;;5072012;28;20214;-83
2023/10/19 01:57:12;;;;;;;2.10;2.00;;;;;;;;;;5072006;28;20261;-83
2023/10/19 01:59:44;;;;;;;2.60;2.33;;;;;;;;;;5071017;28;20227;-82
2023/10/19 02:02:12;;;;;;;1.87;1.77;;;;;;;;;;5083029;28;20567;-83
2023/10/19 02:04:40;;;;;;;4.47;2.03;;;;;;;;;;5087854;28;20234;-81
2023/10/19 02:07:17;;;;;;;4.00;1.70;;;;;;;;;;5086702;28;20535;-81
2023/10/19 02:09:44;;;;;;;5.83;2.33;;;;;;;;;;5075550;28;20198;-82
2023/10/19 02:12:11;;;;;;;9.70;1.93;;;;;;;;;;5076189;28;20203;-83
2023/10/19 02:14:37;;;;;;;1.43;1.30;;;;;;;;;;5077595;28;20697;-84
2023/10/19 02:17:09;;;;;;;3.60;2.47;;;;;;;;;;5078886;28;20222;-81
2023/10/19 02:19:37;;;;;;;2.73;2.57;;;;;;;;;;5093851;28;20266;-84
2023/10/19 02:22:08;;;;;;;3.87;2.17;;;;;;;;;;5095486;28;20214;-82
2023/10/19 02:24:34;;;;;;;0.97;0.97;;;;;;;;;;5093596;28;20191;-83
2023/10/19 02:27:02;;;;;;;3.10;2.67;;;;;;;;;;5092915;28;20240;-83
2023/10/19 02:29:30;;;;;;;1.93;1.80;;;;;;;;;;5096237;28;20190;-82
2023/10/19 02:32:03;;;;;;;6.83;2.07;;;;;;;;;;5095150;28;20202;-82
2023/10/19 02:34:31;;;;;;;1.87;1.80;;;;;;;;;;5096230;28;20213;-83
2023/10/19 02:37:01;;;;;;;4.17;2.70;;;;;;;;;;5095541;28;20335;-82
2023/10/19 02:39:30;;;;;;;1.67;1.63;;;;;;;;;;5086820;28;20625;-84
2023/10/19 02:42:01;;;;;;;3.30;2.50;;;;;;;;;;5085306;28;20209;-83
2023/10/19 02:44:30;;;;;;;3.60;1.60;;;;;;;;;;5079841;28;20199;-82
2023/10/19 02:46:59;;;;;;;2.13;1.93;;;;;;;;;;5080129;28;20198;-81
2023/10/19 02:49:26;;;;;;;2.77;2.43;;;;;;;;;;5085331;28;20186;-81
2023/10/19 02:52:02;;;;;;;5.23;2.83;;;;;;;;;;5091270;28;20197;-82
2023/10/19 02:54:32;;;;;;;1.30;1.20;;;;;;;;;;5083320;28;20240;-82
2023/10/19 02:56:59;;;;;;;5.93;2.80;;;;;;;;;;5072628;28;20234;-81
2023/10/19 02:59:32;;;;;;;3.80;2.07;;;;;;;;;;5071828;28;20603;-82
2023/10/19 03:02:01;;;;;;;3.50;2.80;;;;;;;;;;5072779;28;20214;-82
2023/10/19 03:04:29;;;;;;;7.17;2.67;;;;;;;;;;5071543;28;20691;-83
2023/10/19 03:06:58;;;;;;;4.47;3.20;;;;;;;;;;5070730;28;20197;-83
2023/10/19 03:09:29;;;;;;;7.03;3.83;;;;;;;;;;5070162;28;20627;-82
2023/10/19 03:11:59;;;;;;;3.40;2.43;;;;;;;;;;5070463;28;20195;-82
2023/10/19 03:14:25;;;;;;;4.20;3.30;;;;;;;;;;5070672;28;20289;-83
2023/10/19 03:16:55;;;;;;;4.13;2.90;;;;;;;;;;5070785;28;20319;-83
2023/10/19 03:19:22;;;;;;;2.30;2.20;;;;;;;;;;5070726;28;20727;-83
2023/10/19 03:21:50;;;;;;;6.53;3.73;;;;;;;;;;5070930;28;20198;-82
2023/10/19 03:24:23;;;;;;;8.90;4.33;;;;;;;;;;5071198;28;20198;-83
2023/10/19 03:26:54;;;;;;;3.00;2.57;;;;;;;;;;5070315;28;20656;-82
2023/10/19 03:29:26;;;;;;;5.53;3.60;;;;;;;;;;5071662;28;20590;-83
2023/10/19 03:31:54;;;;;;;4.27;3.30;;;;;;;;;;5072196;28;20204;-83
2023/10/19 03:34:23;;;;;;;3.70;2.87;;;;;;;;;;5071103;28;20285;-83
2023/10/19 03:36:52;;;;;;;4.40;3.20;;;;;;;;;;5069604;28;20238;-82
2023/10/19 03:39:22;;;;;;;3.07;2.67;;;;;;;;;;5072551;28;20290;-82
2023/10/19 03:41:52;;;;;;;5.23;3.57;;;;;;;;;;5069458;28;20213;-84
2023/10/19 03:44:24;;;;;;;3.17;2.60;;;;;;;;;;5069330;28;20481;-82
2023/10/19 03:46:57;;;;;;;1.90;1.80;;;;;;;;;;5069625;28;20233;-83
2023/10/19 03:49:30;;;;;;;12.30;3.20;;;;;;;;;;5070491;28;20202;-82
2023/10/19 03:52:03;;;;;;;4.27;3.37;;;;;;;;;;5069425;28;20656;-83
2023/10/19 03:54:40;;;;;;;3.17;2.67;;;;;;;;;;5070300;28;20846;-84
2023/10/19 03:57:11;;;;;;;4.37;2.87;;;;;;;;;;5072293;28;20222;-84
2023/10/19 03:59:40;;;;;;;3.50;3.10;;;;;;;;;;5072018;28;20195;-84
2023/10/19 04:02:13;;;;;;;7.97;4.30;;;;;;;;;;5073009;28;20234;-84
2023/10/19 04:04:43;;;;;;;8.00;5.43;;;;;;;;;;5072290;28;20648;-83
2023/10/19 04:07:20;;;;;;;19.10;6.30;;;;;;;;;;5072455;28;20223;-83
2023/10/19 04:09:59;;;;;;;13.37;6.23;;;;;;;;;;5071595;28;20285;-84
2023/10/19 04:12:32;;;;;;;3.93;3.57;;;;;;;;;;5071779;28;20602;-83
2023/10/19 04:15:09;;;;;;;5.00;3.03;;;;;;;;;;5069259;28;20577;-84
2023/10/19 04:17:38;;;;;;;7.00;4.37;;;;;;;;;;5069881;28;20309;-84
2023/10/19 04:20:26;;;;;;;6.73;3.93;;;;;;;;;;5069864;28;20236;-83
2023/10/19 04:22:53;;;;;;;7.70;4.40;;;;;;;;;;5071054;28;20213;-83
2023/10/19 04:25:25;;;;;;;4.73;4.33;;;;;;;;;;5073190;28;20294;-82
2023/10/19 04:28:00;;;;;;;13.13;5.80;;;;;;;;;;5074604;28;20183;-84
2023/10/19 04:30:33;;;;;;;13.77;6.53;;;;;;;;;;5074739;28;20186;-82
2023/10/19 04:33:01;;;;;;;5.03;2.93;;;;;;;;;;5075235;28;20310;-83
2023/10/19 04:35:34;;;;;;;5.57;3.80;;;;;;;;;;5080977;28;20227;-83
2023/10/19 04:38:02;;;;;;;10.50;4.20;;;;;;;;;;5083681;28;20223;-83
2023/10/19 04:40:33;;;;;;;3.13;2.90;;;;;;;;;;5083314;28;20198;-82
2023/10/19 04:43:05;;;;;;;12.67;5.27;;;;;;;;;;5078409;28;20580;-83
2023/10/19 04:45:34;;;;;;;12.93;6.00;;;;;;;;;;5074533;28;20216;-83
2023/10/19 04:48:04;;;;;;;10.33;4.87;;;;;;;;;;5073488;28;20195;-82
2023/10/19 04:50:35;;;;;;;13.77;7.93;;;;;;;;;;5073709;28;20214;-82
2023/10/19 04:53:04;;;;;;;13.33;4.73;;;;;;;;;;5075804;28;20183;-83
2023/10/19 04:55:34;;;;;;;13.77;5.57;;;;;;;;;;5075498;28;20202;-83
2023/10/19 04:58:05;;;;;;;21.60;5.03;;;;;;;;;;5073515;28;20249;-82
2023/10/19 05:00:34;;;;;;;28.27;8.30;;;;;;;;;;5077262;28;20208;-82
2023/10/19 05:03:03;;;;;;;7.73;6.13;;;;;;;;;;5076290;28;20214;-82
2023/10/19 05:05:30;;;;;;;8.57;6.13;;;;;;;;;;5079949;28;20277;-83
2023/10/19 05:07:57;;;;;;;11.03;5.70;;;;;;;;;;5089474;28;20250;-82
2023/10/19 05:10:25;;;;;;;12.30;5.20;;;;;;;;;;5083233;28;20574;-82
2023/10/19 05:12:55;;;;;;;23.10;7.53;;;;;;;;;;5074176;28;20358;-84
2023/10/19 05:15:24;;;;;;;7.57;4.63;;;;;;;;;;5074546;28;20192;-83
2023/10/19 05:17:53;;;;;;;8.83;6.07;;;;;;;;;;5077897;28;20237;-82
2023/10/19 05:20:21;;;;;;;6.40;4.17;;;;;;;;;;5076458;28;20258;-82
2023/10/19 05:22:52;;;;;;;6.77;4.73;;;;;;;;;;5076759;28;20202;-83
2023/10/19 05:25:23;;;;;;;9.07;6.87;;;;;;;;;;5078646;28;20301;-84
2023/10/19 05:27:51;;;;;;;15.47;5.57;;;;;;;;;;5075870;28;20191;-82
2023/10/19 05:30:22;;;;;;;17.33;8.73;;;;;;;;;;5075222;28;20210;-81
2023/10/19 05:32:50;;;;;;;10.30;6.07;;;;;;;;;;5076955;28;20254;-82
2023/10/19 05:35:22;;;;;;;7.53;5.00;;;;;;;;;;5076141;28;20226;-84
2023/10/19 05:37:51;;;;;;;16.30;6.47;;;;;;;;;;5073222;28;20241;-83
2023/10/19 05:40:19;;;;;;;16.40;8.43;;;;;;;;;;5073223;28;20191;-83
2023/10/19 05:42:46;;;;;;;12.00;6.93;;;;;;;;;;5072143;28;20352;-84
2023/10/19 05:45:17;;;;;;;8.07;6.30;;;;;;;;;;5073156;28;20210;-84
2023/10/19 05:47:48;;;;;;;14.10;7.10;;;;;;;;;;5071778;28;20198;-84
2023/10/19 05:50:16;;;;;;;14.73;7.50;;;;;;;;;;5072065;28;20260;-83
2023/10/19 05:52:45;;;;;;;20.30;8.37;;;;;;;;;;5071349;28;20241;-84
2023/10/19 05:55:16;;;;;;;12.17;7.83;;;;;;;;;;5054126;28;20629;-83
2023/10/19 05:57:44;;;;;;;9.17;6.07;;;;;;;;;;5071281;28;20280;-83
2023/10/19 06:00:17;;;;;;;15.57;8.43;;;;;;;;;;5072112;28;20206;-85
2023/10/19 06:02:48;;;;;;;17.37;8.43;;;;;;;;;;5071775;28;20225;-83
2023/10/19 06:05:17;;;;;;;17.37;8.90;;;;;;;;;;5073733;28;20687;-83
2023/10/19 06:07:46;;;;;;;22.47;7.10;;;;;;;;;;5073149;28;20199;-83
2023/10/19 06:10:20;;;;;;;13.47;7.57;;;;;;;;;;5073370;28;20209;-83
2023/10/19 06:12:50;;;;;;;13.03;8.60;;;;;;;;;;5072566;28;20199;-84
2023/10/19 06:15:20;;;;;;;9.93;7.20;;;;;;;;;;5072093;28;20190;-83
2023/10/19 06:17:50;;;;;;;13.00;9.40;;;;;;;;;;5071903;28;20250;-82
2023/10/19 06:20:27;;;;;;;21.33;8.77;;;;;;;;;;5072854;28;20195;-84
2023/10/19 06:22:55;;;;;;;26.27;8.40;;;;;;;;;;5077677;28;20195;-83
2023/10/19 06:25:25;;;;;;;25.00;9.97;;;;;;;;;;5073728;28;20643;-83
2023/10/19 06:27:56;;;;;;;14.67;7.90;;;;;;;;;;5071478;28;20656;-83
2023/10/19 06:30:24;;;;;;;26.17;7.90;;;;;;;;;;5071992;28;20576;-82
2023/10/19 06:32:54;;;;;;;18.97;9.43;;;;;;;;;;5072156;28;20618;-85
2023/10/19 06:35:24;;;;;;;18.50;8.83;;;;;;;;;;5072182;28;20234;-83
2023/10/19 06:37:56;;;;;;;12.57;7.57;;;;;;;;;;5073068;28;20230;-82
2023/10/19 06:40:27;;;;;;;12.37;7.67;;;;;;;;;;5072050;28;20218;-82
2023/10/19 06:42:58;;;;;;;14.80;7.57;;;;;;;;;;5072283;28;20623;-84
2023/10/19 06:45:26;;;;;;;17.43;7.50;;;;;;;;;;5070813;28;20191;-82
2023/10/19 06:47:59;;;;;;;9.67;6.23;;;;;;;;;;5074230;28;20538;-83
2023/10/19 06:50:32;;;;;;;13.13;7.77;;;;;;;;;;5072831;28;20668;-83
2023/10/19 06:53:10;;;;;;;11.57;7.17;;;;;;;;;;5072331;28;20198;-83
2023/10/19 06:55:43;;;;;;;15.43;8.23;;;;;;;;;;5071897;28;20190;-83
2023/10/19 06:58:19;;;;;;;11.13;6.17;;;;;;;;;;5071633;28;20226;-83
2023/10/19 07:00:56;;;;;;;14.83;6.63;;;;;;;;;;5067432;28;20231;-84
2023/10/19 07:03:29;;;;;;;18.10;7.07;;;;;;;;;;5071758;28;20443;-81
2023/10/19 07:05:59;;;;;;;13.17;7.57;;;;;;;;;;5059118;28;20222;-84
2023/10/19 07:08:28;;;;;;;11.73;6.43;;;;;;;;;;5058670;28;20202;-85
2023/10/19 07:10:57;;;;;;;12.70;7.27;;;;;;;;;;5067741;28;20286;-83
2023/10/19 07:13:36;;;;;;;13.93;8.10;;;;;;;;;;5066272;28;20206;-82
2023/10/19 07:16:05;;;;;;;14.20;7.20;;;;;;;;;;5057955;28;20211;-83
2023/10/19 07:18:36;;;;;;;6.30;5.40;;;;;;;;;;5069900;28;20558;-83
2023/10/19 07:21:05;;;;;;;9.20;5.87;;;;;;;;;;5064007;28;20268;-83
2023/10/19 07:23:37;;;;;;;8.50;5.63;;;;;;;;;;5057788;28;20198;-84
2023/10/19 07:26:07;;;;;;;9.63;5.47;;;;;;;;;;5061092;28;20199;-84
2023/10/19 07:28:34;;;;;;;12.37;6.37;;;;;;;;;;5061506;28;20207;-84
2023/10/19 07:31:10;;;;;;;10.87;5.87;;;;;;;;;;5060800;28;20661;-82
2023/10/19 07:33:46;;;;;;;5.07;4.60;;;;;;;;;;5068293;28;20663;-83
2023/10/19 07:36:18;;;;;;;8.83;4.97;;;;;;;;;;5072243;28;20261;-84
2023/10/19 07:38:49;;;;;;;5.13;4.63;;;;;;;;;;5070014;28;20396;-83
2023/10/19 07:41:20;;;;;;;8.80;5.30;;;;;;;;;;5070489;28;20186;-83
2023/10/19 07:43:49;;;;;;;7.60;4.93;;;;;;;;;;5070187;28;20280;-82
2023/10/19 07:46:18;;;;;;;4.47;4.10;;;;;;;;;;5069800;28;20199;-83
2023/10/19 07:48:48;;;;;;;8.73;4.90;;;;;;;;;;5068009;28;20211;-84
2023/10/19 07:51:18;;;;;;;7.90;4.70;;;;;;;;;;5067000;28;20226;-81
2023/10/19 07:53:48;;;;;;;4.77;4.33;;;;;;;;;;5073961;28;20585;-82
2023/10/19 07:56:16;;;;;;;7.20;4.60;;;;;;;;;;5072398;28;20195;-84
2023/10/19 07:58:44;;;;;;;10.02;5.35;;;;;;;;;;5072350;28;20287;-82
2023/10/19 08:01:16;;;;;;;6.53;5.13;;;;;;;;;;5067027;28;20418;-83
2023/10/19 08:03:45;;;;;;;9.38;6.93;;;;;;;;;;5068090;28;20738;-84
2023/10/19 08:06:15;;;;;;;9.48;6.68;;;;;;;;;;5068891;28;20279;-82
2023/10/19 08:08:44;;;;;;;8.02;5.95;;;;;;;;;;5066165;28;20212;-82
2023/10/19 08:11:16;;;;;;;10.98;6.30;;;;;;;;;;5062569;28;20594;-84
2023/10/19 08:13:46;;;;;;;8.95;6.82;;;;;;;;;;5067512;28;20588;-83
2023/10/19 08:16:16;;;;;;;9.68;6.45;;;;;;;;;;5059183;28;20264;-84
2023/10/19 08:18:48;;;;;;;9.05;6.80;;;;;;;;;;5072789;28;20654;-82
2023/10/19 08:21:22;;;;;;;6.35;5.75;;;;;;;;;;5075045;28;20228;-84
2023/10/19 08:23:53;;;;;;;12.65;6.80;;;;;;;;;;5065708;28;20232;-82
2023/10/19 08:26:26;;;;;;;11.02;6.05;;;;;;;;;;5072052;28;20241;-83
2023/10/19 08:29:07;;;;;;;9.35;6.57;;;;;;;;;;5060000;28;20269;-82
2023/10/19 08:31:35;;;;;;;15.10;7.30;;;;;;;;;;5072295;28;20235;-82
2023/10/19 08:34:03;;;;;;;8.65;7.15;;;;;;;;;;5078376;28;20225;-82
2023/10/19 08:36:36;;;;;;;9.73;6.53;;;;;;;;;;5083349;28;20241;-85
2023/10/19 08:39:05;;;;;;;12.80;6.93;;;;;;;;;;5076841;28;20236;-83
2023/10/19 08:41:37;;;;;;;9.15;5.97;;;;;;;;;;5071688;28;20252;-82
2023/10/19 08:44:11;;;;;;;8.20;6.38;;;;;;;;;;5070858;28;20226;-85
2023/10/19 08:46:51;;;;;;;8.68;6.28;;;;;;;;;;5070798;28;20256;-84
2023/10/19 08:49:23;;;;;;;8.25;6.30;;;;;;;;;;5071110;28;20281;-83
2023/10/19 08:51:53;;;;;;;7.07;5.70;;;;;;;;;;5075617;28;20225;-83
2023/10/19 08:54:23;;;;;;;12.13;5.90;;;;;;;;;;5086077;28;20286;-81
2023/10/19 08:56:51;;;;;;;8.13;5.65;;;;;;;;;;5076078;28;20219;-82
2023/10/19 08:59:28;;;;;;;9.05;5.10;;;;;;;;;;5065801;28;20233;-82
2023/10/19 09:02:01;;;;;;;13.15;6.70;;;;;;;;;;5059702;28;20228;-83
2023/10/19 09:04:30;;;;;;;6.05;5.55;;;;;;;;;;5067522;28;20216;-84
2023/10/19 09:06:59;;;;;;;6.97;5.63;;;;;;;;;;5065432;28;20221;-82
2023/10/19 09:09:32;;;;;;;5.90;4.95;;;;;;;;;;5062850;28;20225;-84
2023/10/19 09:12:03;;;;;;;5.60;4.75;;;;;;;;;;5059959;28;20220;-81
2023/10/19 09:14:35;;;;;;;7.45;5.32;;;;;;;;;;5064326;28;20253;-82
2023/10/19 09:17:05;;;;;;;8.95;5.85;;;;;;;;;;5063660;28;20661;-82
2023/10/19 09:19:47;;;;;;;7.07;5.80;;;;;;;;;;5059157;28;20233;-83
2023/10/19 09:22:22;;;;;;;9.75;5.85;;;;;;;;;;5061251;28;20217;-83
2023/10/19 09:25:06;;;;;;;6.07;4.70;;;;;;;;;;5066530;28;20215;-83
2023/10/19 09:27:35;;;;;;;5.82;4.53;;;;;;;;;;5059851;28;20225;-83
2023/10/19 09:30:07;;;;;;;4.32;3.92;;;;;;;;;;5063680;28;20219;-83
2023/10/19 09:32:43;;;;;;;13.82;5.10;;;;;;;;;;5070074;28;20218;-84
2023/10/19 09:35:15;;;;;;;8.98;4.85;;;;;;;;;;5071285;28;20271;-84
2023/10/19 09:37:45;;;;;;;5.50;4.35;;;;;;;;;;5069618;28;20216;-81
2023/10/19 09:40:23;;;;;;;3.85;3.55;;;;;;;;;;5065199;28;20380;-83
2023/10/19 09:42:57;;;;;;;3.50;3.17;;;;;;;;;;5070616;28;20251;-83
2023/10/19 09:45:34;;;;;;;4.27;3.87;;;;;;;;;;5054537;28;20326;-83
2023/10/19 09:48:06;;;;;;;4.95;3.28;;;;;;;;;;5068880;28;20226;-83
2023/10/19 09:50:38;;;;;;;6.10;3.35;;;;;;;;;;5069032;28;20226;-83
2023/10/19 09:53:11;;;;;;;3.50;3.20;;;;;;;;;;5059548;28;20801;-83
2023/10/19 09:55:41;;;;;;;3.72;3.35;;;;;;;;;;5059300;28;20226;-83
2023/10/19 09:58:15;;;;;;;3.20;2.90;;;;;;;;;;5059188;28;20654;-82
2023/10/19 10:00:51;;;;;;;3.60;3.30;;;;;;;;;;5059966;28;20228;-83
2023/10/19 10:06:20;;;;;;;3.97;3.47;;;;;;;;;;5060338;28;20607;-85
2023/10/19 10:08:49;;;;;;;4.30;3.90;;;;;;;;;;5058246;28;20228;-84
2023/10/19 10:11:20;;;;;;;3.38;3.08;;;;;;;;;;5058075;28;20237;-84
2023/10/19 10:13:51;;;;;;;3.47;3.17;;;;;;;;;;5061871;28;20741;-83
2023/10/19 10:16:19;;;;;;;3.65;3.38;;;;;;;;;;5063661;28;20649;-84
2023/10/19 10:18:50;;;;;;;3.47;3.20;;;;;;;;;;5058625;28;20228;-83
2023/10/19 10:21:18;;;;;;;4.60;3.38;;;;;;;;;;5058108;28;20748;-84
2023/10/19 10:23:47;;;;;;;4.97;4.20;;;;;;;;;;5058431;28;20309;-84
2023/10/19 10:26:24;;;;;;;4.13;3.38;;;;;;;;;;5061372;28;20246;-85
2023/10/19 10:29:11;;;;;;;3.92;3.35;;;;;;;;;;5058773;28;20245;-83
2023/10/19 10:31:43;;;;;;;8.20;3.53;;;;;;;;;;5059613;28;20252;-83
2023/10/19 10:34:12;;;;;;;6.03;3.47;;;;;;;;;;5060742;28;20228;-84
2023/10/19 10:37:03;;;;;;;6.20;3.92;;;;;;;;;;5063122;28;20303;-82
2023/10/19 10:39:32;;;;;;;4.28;3.38;;;;;;;;;;5065324;28;20319;-84
2023/10/19 10:42:05;;;;;;;4.68;4.07;;;;;;;;;;5057752;28;20312;-83
2023/10/19 10:44:41;;;;;;;3.72;3.25;;;;;;;;;;5060482;28;20231;-83
2023/10/19 10:47:10;;;;;;;8.18;4.20;;;;;;;;;;5059345;28;20253;-82
2023/10/19 10:49:53;;;;;;;4.40;3.85;;;;;;;;;;5057228;28;20226;-83
2023/10/19 10:52:28;;;;;;;4.03;3.67;;;;;;;;;;5059120;28;20325;-82
2023/10/19 10:54:58;;;;;;;6.90;4.22;;;;;;;;;;5059934;28;20221;-83
2023/10/19 10:57:32;;;;;;;4.35;3.95;;;;;;;;;;5056886;28;20713;-83
2023/10/19 11:00:04;;;;;;;4.32;4.00;;;;;;;;;;5057331;28;20669;-84
2023/10/19 11:02:33;;;;;;;4.88;4.10;;;;;;;;;;5058787;28;20225;-83
2023/10/19 11:05:04;;;;;;;4.38;3.95;;;;;;;;;;5059610;28;20219;-83
2023/10/19 11:07:36;;;;;;;4.40;4.00;;;;;;;;;;5056401;28;20190;-82
2023/10/19 11:10:09;;;;;;;3.55;3.25;;;;;;;;;;5055227;28;20660;-83
2023/10/19 11:12:39;;;;;;;4.18;3.30;;;;;;;;;;5061862;28;20277;-84
2023/10/19 11:15:11;;;;;;;5.28;4.10;;;;;;;;;;5067870;28;20190;-83
2023/10/19 11:17:43;;;;;;;3.78;3.53;;;;;;;;;;5060761;28;20209;-82
2023/10/19 11:20:22;;;;;;;5.18;4.03;;;;;;;;;;5057921;28;20363;-82
2023/10/19 11:22:50;;;;;;;3.45;3.17;;;;;;;;;;5061094;28;20205;-84
2023/10/19 11:25:21;;;;;;;4.63;3.85;;;;;;;;;;5061685;28;20633;-84
2023/10/19 11:27:52;;;;;;;5.15;4.07;;;;;;;;;;5060102;28;20282;-84
2023/10/19 11:30:27;;;;;;;5.50;4.45;;;;;;;;;;5061884;28;20698;-84
2023/10/19 11:32:56;;;;;;;4.45;3.47;;;;;;;;;;5049864;28;20700;-84
2023/10/19 11:35:25;;;;;;;4.63;3.38;;;;;;;;;;5057005;28;20286;-83
2023/10/19 11:37:55;;;;;;;5.22;3.50;;;;;;;;;;5076498;28;20204;-83
2023/10/19 11:40:26;;;;;;;4.53;4.13;;;;;;;;;;5071160;28;20228;-84
2023/10/19 11:42:57;;;;;;;3.03;2.90;;;;;;;;;;5071380;28;20190;-84
2023/10/19 11:45:25;;;;;;;4.88;3.28;;;;;;;;;;5058549;28;20204;-84
2023/10/19 11:47:56;;;;;;;3.15;2.95;;;;;;;;;;5052256;28;20241;-84
2023/10/19 11:50:25;;;;;;;3.22;2.92;;;;;;;;;;5062973;28;20205;-84
2023/10/19 11:52:56;;;;;;;5.30;3.63;;;;;;;;;;5060578;28;20204;-82
2023/10/19 11:55:27;;;;;;;3.88;3.17;;;;;;;;;;5057600;28;20550;-83
2023/10/19 11:57:57;;;;;;;3.88;3.58;;;;;;;;;;5060640;28;20210;-84
2023/10/19 12:00:33;;;;;;;5.60;3.10;;;;;;;;;;5057320;28;20218;-84
2023/10/19 12:03:03;;;;;;;2.67;2.47;;;;;;;;;;5049952;28;20302;-84
2023/10/19 12:05:36;;;;;;;4.57;2.80;;;;;;;;;;5050269;28;20203;-85
2023/10/19 12:08:06;;;;;;;3.00;2.80;;;;;;;;;;5050659;28;20248;-83
2023/10/19 12:10:36;;;;;;;2.50;2.38;;;;;;;;;;5057441;28;20190;-84
2023/10/19 12:13:09;;;;;;;3.03;2.85;;;;;;;;;;5053903;28;20249;-84
2023/10/19 12:15:38;;;;;;;5.03;2.75;;;;;;;;;;5059712;28;20293;-83
2023/10/19 12:18:08;;;;;;;3.85;2.53;;;;;;;;;;5077638;28;20203;-83
2023/10/19 12:20:35;;;;;;;3.45;3.20;;;;;;;;;;5076027;28;20244;-83
2023/10/19 12:23:05;;;;;;;3.58;3.28;;;;;;;;;;5076251;28;20193;-84
2023/10/19 12:25:38;;;;;;;3.70;3.40;;;;;;;;;;5065145;28;20255;-83
2023/10/19 12:28:13;;;;;;;3.92;2.90;;;;;;;;;;5062037;28;20216;-84
2023/10/19 12:30:42;;;;;;;5.30;3.00;;;;;;;;;;5063880;28;20229;-84
2023/10/19 12:33:12;;;;;;;3.05;2.85;;;;;;;;;;5060484;28;20289;-85
2023/10/19 12:35:49;;;;;;;9.60;3.08;;;;;;;;;;5058169;28;20627;-84
2023/10/19 12:38:36;;;;;;;2.92;2.70;;;;;;;;;;5054172;28;20202;-83
2023/10/19 12:41:09;;;;;;;3.15;3.03;;;;;;;;;;5056680;28;20196;-85
2023/10/19 12:43:46;;;;;;;3.85;3.47;;;;;;;;;;5061513;28;20195;-84
2023/10/19 12:46:15;;;;;;;3.60;3.33;;;;;;;;;;5060890;28;20238;-83
2023/10/19 12:48:46;;;;;;;4.20;3.35;;;;;;;;;;5062576;28;20200;-85
2023/10/19 12:51:22;;;;;;;3.58;3.28;;;;;;;;;;5061632;28;20198;-84
2023/10/19 12:53:51;;;;;;;3.15;2.78;;;;;;;;;;5045501;28;20195;-85
2023/10/19 12:56:21;;;;;;;7.13;3.13;;;;;;;;;;5064792;28;20203;-83
2023/10/19 12:58:50;;;;;;;4.60;3.05;;;;;;;;;;5061349;28;20207;-83
2023/10/19 13:01:23;;;;;;;6.45;3.38;;;;;;;;;;5073711;28;20207;-83
2023/10/19 13:03:53;;;;;;;3.45;2.78;;;;;;;;;;5076310;28;20218;-84
2023/10/19 13:06:29;;;;;;;8.07;3.08;;;;;;;;;;5060295;28;20752;-83
2023/10/19 13:09:04;;;;;;;3.35;2.40;;;;;;;;;;5053128;28;20199;-84
2023/10/19 13:11:32;;;;;;;3.67;3.38;;;;;;;;;;5061872;28;20233;-84
2023/10/19 13:14:06;;;;;;;3.83;3.03;;;;;;;;;;5061363;28;20207;-85
2023/10/19 13:16:35;;;;;;;2.67;2.58;;;;;;;;;;5052364;28;20215;-84
2023/10/19 13:19:11;;;;;;;3.00;2.70;;;;;;;;;;5052750;28;20234;-85
2023/10/19 13:21:42;;;;;;;3.30;3.00;;;;;;;;;;5052912;28;20198;-83
2023/10/19 13:24:09;;;;;;;2.70;2.60;;;;;;;;;;5053559;28;20215;-83
2023/10/19 13:26:40;;;;;;;3.08;2.88;;;;;;;;;;5053198;28;20672;-84
2023/10/19 13:29:10;;;;;;;4.03;2.78;;;;;;;;;;5053915;28;20254;-85
2023/10/19 13:31:39;;;;;;;3.80;3.47;;;;;;;;;;5054647;28;20694;-83
2023/10/19 13:34:10;;;;;;;5.20;2.90;;;;;;;;;;5053443;28;20218;-84
2023/10/19 13:36:38;;;;;;;3.45;3.15;;;;;;;;;;5070610;28;20237;-85
2023/10/19 13:39:12;;;;;;;5.25;3.13;;;;;;;;;;5074757;28;20205;-85
2023/10/19 13:41:40;;;;;;;3.47;3.28;;;;;;;;;;5066744;28;20207;-85
2023/10/19 13:44:11;;;;;;;4.25;3.05;;;;;;;;;;5054705;28;20229;-86
2023/10/19 13:46:39;;;;;;;7.38;4.10;;;;;;;;;;5055459;28;20209;-85
2023/10/19 13:49:07;;;;;;;3.38;3.17;;;;;;;;;;5055562;28;20265;-85
2023/10/19 13:51:34;;;;;;;4.43;2.72;;;;;;;;;;5055014;28;20225;-84
2023/10/19 13:54:01;;;;;;;3.17;2.92;;;;;;;;;;5056796;28;20203;-86
2023/10/19 13:56:30;;;;;;;10.07;3.20;;;;;;;;;;5054386;28;20218;-84
2023/10/19 13:58:59;;;;;;;3.63;3.05;;;;;;;;;;5056937;28;20196;-86
2023/10/19 14:01:30;;;;;;;3.00;2.72;;;;;;;;;;5055767;28;20223;-85
2023/10/19 14:03:58;;;;;;;8.73;3.53;;;;;;;;;;5055761;28;20201;-85
2023/10/19 14:06:31;;;;;;;6.97;3.60;;;;;;;;;;5057017;28;20287;-82
2023/10/19 14:09:00;;;;;;;3.35;3.05;;;;;;;;;;5056163;28;20278;-84
2023/10/19 14:11:47;;;;;;;3.38;3.17;;;;;;;;;;5360978;22;20232;-86
2023/10/19 14:14:16;;;;;;;7.53;3.28;;;;;;;;;;5072067;28;20226;-84
2023/10/19 14:16:45;;;;;;;6.90;3.22;;;;;;;;;;5052613;28;20735;-85
2023/10/19 14:19:19;;;;;;;4.32;2.97;;;;;;;;;;5052758;28;20201;-87
2023/10/19 14:21:47;;;;;;;3.72;3.33;;;;;;;;;;5053611;28;20249;-85
2023/10/19 14:24:17;;;;;;;3.45;3.13;;;;;;;;;;5070113;28;20199;-85
2023/10/19 14:26:47;;;;;;;4.35;3.40;;;;;;;;;;5074043;28;20266;-84
2023/10/19 14:29:17;;;;;;;3.45;2.80;;;;;;;;;;5077332;28;20210;-85
2023/10/19 14:31:48;;;;;;;7.22;3.55;;;;;;;;;;5065245;28;20211;-85
2023/10/19 14:34:18;;;;;;;3.72;2.78;;;;;;;;;;5053159;28;20644;-84
2023/10/19 14:36:50;;;;;;;9.68;3.17;;;;;;;;;;5054290;28;20735;-84
2023/10/19 14:39:20;;;;;;;3.53;3.22;;;;;;;;;;5052394;28;20227;-85
2023/10/19 14:41:47;;;;;;;3.30;2.75;;;;;;;;;;5053098;28;20195;-85
2023/10/19 14:44:17;;;;;;;3.33;2.60;;;;;;;;;;5057022;28;20569;-84
2023/10/19 14:46:47;;;;;;;3.45;3.15;;;;;;;;;;5052809;28;20203;-85
2023/10/19 14:49:13;;;;;;;4.13;3.13;;;;;;;;;;5053889;28;20393;-83
2023/10/19 14:51:42;;;;;;;5.50;3.17;;;;;;;;;;5054802;28;20203;-84
2023/10/19 14:54:13;;;;;;;4.50;3.75;;;;;;;;;;5054296;28;20198;-83
2023/10/19 14:56:46;;;;;;;3.60;2.90;;;;;;;;;;5052976;28;20230;-83
2023/10/19 14:59:14;;;;;;;4.03;2.80;;;;;;;;;;5052685;28;20253;-85
2023/10/19 15:01:41;;;;;;;3.05;2.88;;;;;;;;;;5052719;28;20310;-84
2023/10/19 15:04:11;;;;;;;3.00;2.75;;;;;;;;;;5059929;28;20202;-88
2023/10/19 15:06:42;;;;;;;3.08;2.88;;;;;;;;;;5063218;28;20198;-84